Time;durP1;ratioP1;P1;durP2;ratioP2;P2;SDS_P1;SDS_P2;PMS_P1;PMS_P2;Temp;Humidity;BMP_temperature;BMP_pressure;BME280_temperature;BME280_humidity;BME280_pressure;Samples;Min_cycle;Max_cycle;Signal;HPM_P1;HPM_P2
2021/11/24 00:01:48;;;;;;;45.92;14.88;;;6.00;99.90;;;4.31;100.00;102418.41;2566658;30;137301;-38
2021/11/24 00:04:30;;;;;;;41.67;14.40;;;6.00;99.90;;;4.30;100.00;102413.16;2568393;30;138214;-38
2021/11/24 00:07:11;;;;;;;37.75;14.27;;;6.00;99.90;;;4.33;100.00;102415.59;2568515;30;137458;-38
2021/11/24 00:09:53;;;;;;;39.97;13.10;;;6.00;99.90;;;4.32;100.00;102411.19;2569652;30;138356;-38
2021/11/24 00:12:35;;;;;;;40.10;13.73;;;6.00;99.90;;;4.31;100.00;102402.19;2570774;30;136672;-38
2021/11/24 00:15:17;;;;;;;39.50;13.82;;;6.00;99.90;;;4.32;100.00;102403.91;2567858;30;137406;-38
2021/11/24 00:17:59;;;;;;;41.03;14.98;;;6.00;99.90;;;4.28;100.00;102393.53;2570611;30;138265;-39
2021/11/24 00:20:40;;;;;;;39.63;13.10;;;6.00;99.90;;;4.32;100.00;102394.97;2570969;30;138855;-39
2021/11/24 00:23:21;;;;;;;41.53;13.57;;;6.00;99.90;;;4.33;100.00;102396.66;2570028;30;136934;-39
2021/11/24 00:26:03;;;;;;;39.90;13.23;;;6.00;99.90;;;4.33;100.00;102399.38;2569078;30;137751;-39
2021/11/24 00:28:45;;;;;;;40.10;13.30;;;6.00;99.90;;;4.26;100.00;102385.53;2570817;30;137404;-39
2021/11/24 00:31:27;;;;;;;38.42;13.27;;;6.00;99.90;;;4.36;100.00;102392.81;2568931;30;138206;-39
2021/11/24 00:34:09;;;;;;;33.65;13.57;;;6.00;99.90;;;4.35;100.00;102394.69;2570289;30;136691;-39
2021/11/24 00:36:51;;;;;;;37.70;13.30;;;6.00;99.90;;;4.35;100.00;102399.22;2570797;30;138259;-39
2021/11/24 00:39:33;;;;;;;36.53;12.85;;;6.00;99.90;;;4.35;100.00;102400.09;2570335;30;138354;-39
2021/11/24 00:42:14;;;;;;;37.08;13.95;;;6.00;99.90;;;4.35;100.00;102400.09;2570567;30;138322;-38
2021/11/24 00:44:56;;;;;;;38.58;13.32;;;6.00;99.90;;;4.36;100.00;102399.09;2569870;30;137415;-39
2021/11/24 00:47:37;;;;;;;41.75;13.75;;;6.00;99.90;;;4.35;100.00;102389.28;2568718;30;137255;-38
2021/11/24 00:50:19;;;;;;;38.58;13.93;;;6.00;99.90;;;4.37;100.00;102392.72;2569538;30;137555;-39
2021/11/24 00:53:00;;;;;;;50.03;15.90;;;6.00;99.90;;;4.37;100.00;102390.00;2569029;30;138165;-38
2021/11/24 00:55:42;;;;;;;51.45;14.90;;;6.10;99.90;;;4.37;100.00;102390.00;2570403;30;137930;-38
2021/11/24 00:58:24;;;;;;;53.33;17.10;;;6.10;99.90;;;4.40;100.00;102381.63;2570585;30;138176;-38
2021/11/24 01:01:05;;;;;;;62.17;16.00;;;6.10;99.90;;;4.37;100.00;102376.50;2568744;30;137430;-39
2021/11/24 01:03:47;;;;;;;52.08;15.35;;;6.10;99.90;;;4.37;100.00;102381.91;2569472;30;138110;-39
2021/11/24 01:06:28;;;;;;;48.17;15.38;;;6.10;99.90;;;4.37;100.00;102379.19;2568366;30;137199;-39
2021/11/24 01:09:10;;;;;;;59.47;16.65;;;6.00;99.90;;;4.36;100.00;102374.78;2569167;30;138893;-39
2021/11/24 01:11:52;;;;;;;58.67;16.83;;;6.00;99.90;;;4.37;100.00;102372.91;2569089;30;137485;-38
2021/11/24 01:14:33;;;;;;;56.13;16.73;;;6.10;99.90;;;4.37;100.00;102376.50;2567827;30;138486;-38
2021/11/24 01:17:15;;;;;;;49.15;15.32;;;6.10;99.90;;;4.38;100.00;102371.97;2568634;30;137025;-39
2021/11/24 01:19:57;;;;;;;47.67;16.00;;;6.10;99.90;;;4.37;100.00;102376.50;2566065;30;138321;-38
2021/11/24 01:22:39;;;;;;;60.47;17.13;;;6.10;99.90;;;4.38;100.00;102369.25;2569213;30;137533;-38
2021/11/24 01:25:20;;;;;;;50.05;15.57;;;6.10;99.90;;;4.37;100.00;102364.81;2570677;30;139162;-39
2021/11/24 01:28:02;;;;;;;49.88;16.10;;;6.10;99.90;;;4.37;100.00;102362.97;2571159;30;136942;-38
2021/11/24 01:30:44;;;;;;;49.58;15.85;;;6.10;99.90;;;4.38;100.00;102363.84;2568133;30;139095;-39
2021/11/24 01:33:25;;;;;;;53.10;17.45;;;6.10;99.90;;;4.38;100.00;102369.25;2570005;30;136894;-39
2021/11/24 01:36:07;;;;;;;53.35;17.27;;;6.10;99.90;;;4.37;100.00;102357.56;2568603;30;138263;-38
2021/11/24 01:38:48;;;;;;;43.60;15.65;;;6.10;99.90;;;4.31;100.00;102347.31;2568681;30;137449;-39
2021/11/24 01:41:30;;;;;;;48.13;15.55;;;6.00;99.90;;;4.32;100.00;102351.72;2571250;30;138348;-39
2021/11/24 01:44:28;;;;;;;41.92;16.08;;;6.00;99.90;;;4.29;100.00;102347.44;2570681;30;136948;-38
2021/11/24 01:47:10;;;;;;;43.05;14.57;;;6.00;99.90;;;4.30;100.00;102346.44;2570241;30;137768;-38
2021/11/24 01:49:51;;;;;;;55.05;17.55;;;6.00;99.90;;;4.32;100.00;102354.44;2572049;30;137653;-39
2021/11/24 01:52:33;;;;;;;57.60;17.17;;;6.00;99.90;;;4.29;100.00;102352.00;2569071;30;138385;-40
2021/11/24 01:55:17;;;;;;;54.83;17.45;;;6.00;99.90;;;4.29;100.00;102355.53;2569627;30;137211;-46
2021/11/24 01:58:00;;;;;;;48.92;16.45;;;6.00;99.90;;;4.27;100.00;102353.97;2568543;30;140352;-39
2021/11/24 02:00:41;;;;;;;48.28;15.38;;;6.00;99.90;;;4.27;100.00;102353.97;2568737;30;137439;-39
2021/11/24 02:03:23;;;;;;;52.53;16.08;;;6.00;99.90;;;4.25;100.00;102342.44;2568572;30;138235;-39
2021/11/24 02:06:04;;;;;;;53.50;17.30;;;6.00;99.90;;;4.25;100.00;102339.75;2569317;30;137375;-39
2021/11/24 02:08:45;;;;;;;52.78;16.15;;;6.00;99.90;;;4.23;100.00;102337.16;2570547;30;137147;-39
2021/11/24 02:11:27;;;;;;;41.33;15.32;;;6.00;99.90;;;4.21;100.00;102332.88;2570467;30;136900;-39
2021/11/24 02:14:11;;;;;;;46.97;15.95;;;5.90;99.90;;;4.18;100.00;102334.84;2569205;30;137392;-39
2021/11/24 02:16:53;;;;;;;44.85;14.57;;;5.90;99.90;;;4.17;100.00;102321.50;2568043;30;137738;-38
2021/11/24 02:19:36;;;;;;;33.80;13.18;;;5.90;99.90;;;4.14;100.00;102319.06;2569588;30;137253;-39
2021/11/24 02:22:17;;;;;;;45.83;15.82;;;5.90;99.90;;;4.12;100.00;102313.78;2569835;30;137093;-39
2021/11/24 02:24:59;;;;;;;42.65;16.10;;;5.90;99.90;;;4.09;100.00;102307.78;2567148;30;137825;-38
2021/11/24 02:27:40;;;;;;;43.20;16.02;;;5.90;99.90;;;4.14;100.00;102310.97;2569964;30;137094;-38
2021/11/24 02:30:22;;;;;;;38.00;14.27;;;5.80;99.90;;;4.13;100.00;102310.09;2569338;30;137987;-39
2021/11/24 02:33:04;;;;;;;41.53;14.63;;;5.80;99.90;;;4.11;100.00;102300.38;2569223;30;136881;-39
2021/11/24 02:35:46;;;;;;;42.10;15.00;;;5.80;99.90;;;4.14;100.00;102297.44;2568773;30;137023;-38
2021/11/24 02:38:28;;;;;;;40.40;14.43;;;5.90;99.90;;;4.14;100.00;102297.44;2568402;30;138035;-38
2021/11/24 02:41:09;;;;;;;41.75;13.98;;;5.90;99.90;;;4.13;100.00;102293.88;2569950;30;138435;-38
2021/11/24 02:43:51;;;;;;;37.40;14.73;;;5.80;99.90;;;4.15;100.00;102291.06;2571089;30;137590;-38
2021/11/24 02:46:32;;;;;;;43.38;14.65;;;5.80;99.90;;;4.14;100.00;102292.06;2568121;30;138327;-38
2021/11/24 02:49:14;;;;;;;42.58;14.27;;;5.80;99.90;;;4.15;100.00;102296.47;2568834;30;137145;-39
2021/11/24 02:51:56;;;;;;;40.40;13.82;;;5.90;99.90;;;4.15;100.00;102289.19;2570186;30;138252;-39
2021/11/24 02:54:38;;;;;;;34.95;13.55;;;5.80;99.90;;;4.15;100.00;102278.38;2567674;30;137295;-39
2021/11/24 02:57:29;;;;;;;46.47;14.95;;;5.80;99.90;;;4.16;100.00;102280.09;2580948;30;139215;-41
2021/11/24 03:00:34;;;;;;;42.72;14.75;;;5.90;99.90;;;4.16;100.00;102280.09;2567218;30;138149;-40
2021/11/24 03:03:15;;;;;;;48.10;16.25;;;5.90;99.90;;;4.19;100.00;102281.69;2568485;30;138506;-40
2021/11/24 03:05:57;;;;;;;44.10;14.80;;;5.90;99.90;;;4.20;100.00;102274.44;2567189;30;137508;-40
2021/11/24 03:08:38;;;;;;;43.15;15.50;;;5.90;99.90;;;4.20;100.00;102263.63;2567675;30;138095;-40
2021/11/24 03:11:20;;;;;;;44.20;15.57;;;5.90;99.90;;;4.20;100.00;102263.63;2566097;30;137532;-40
2021/11/24 03:14:01;;;;;;;45.10;16.00;;;5.90;99.90;;;4.20;100.00;102266.31;2568064;30;139020;-40
2021/11/24 03:16:43;;;;;;;46.67;15.70;;;5.90;99.90;;;4.20;100.00;102264.50;2567553;30;136942;-40
2021/11/24 03:19:24;;;;;;;44.50;14.55;;;5.90;99.90;;;4.20;100.00;102258.22;2567798;30;138166;-40
2021/11/24 03:22:06;;;;;;;37.40;13.68;;;5.90;99.90;;;4.21;100.00;102257.22;2567948;30;137559;-40
2021/11/24 03:24:55;;;;;;;39.92;14.07;;;5.90;99.90;;;4.23;100.00;102255.25;2565014;30;138473;-40
2021/11/24 03:27:42;;;;;;;39.33;14.68;;;5.90;99.90;;;4.24;100.00;102249.72;2564659;30;138352;-40
2021/11/24 03:30:28;;;;;;;35.80;13.43;;;5.90;99.90;;;4.23;100.00;102248.00;2567978;30;137313;-40
2021/11/24 03:33:10;;;;;;;39.65;13.80;;;5.90;99.90;;;4.24;100.00;102247.00;2568458;30;136809;-40
2021/11/24 03:35:51;;;;;;;45.75;15.07;;;5.90;99.90;;;4.26;100.00;102236.09;2567342;30;137100;-40
2021/11/24 03:38:33;;;;;;;41.83;14.45;;;5.90;99.90;;;4.20;100.00;102231.19;2567493;30;136949;-40
2021/11/24 03:41:14;;;;;;;42.80;15.02;;;5.90;99.90;;;4.24;100.00;102235.34;2566591;30;138733;-40
2021/11/24 03:43:56;;;;;;;46.55;15.85;;;5.90;99.90;;;4.23;100.00;102230.94;2568411;30;137474;-40
2021/11/24 03:46:37;;;;;;;43.33;15.23;;;5.90;99.90;;;4.23;100.00;102228.22;2565570;30;138570;-40
2021/11/24 03:49:20;;;;;;;46.67;15.85;;;5.90;99.90;;;4.23;100.00;102220.13;2568890;30;137536;-40
2021/11/24 03:52:02;;;;;;;44.70;14.18;;;5.90;99.90;;;4.25;100.00;102218.16;2568710;30;138244;-40
2021/11/24 03:54:43;;;;;;;35.75;13.88;;;5.90;99.90;;;4.24;100.00;102202.91;2568823;30;137806;-40
2021/11/24 03:57:25;;;;;;;38.50;14.88;;;6.00;99.90;;;4.25;100.00;102207.34;2566247;30;138696;-40
2021/11/24 04:00:13;;;;;;;43.08;13.85;;;5.90;99.90;;;4.25;100.00;102196.53;2568729;30;137212;-40
2021/11/24 04:02:55;;;;;;;36.90;13.20;;;5.90;99.90;;;4.22;100.00;102191.38;2567915;30;138912;-40
2021/11/24 04:05:37;;;;;;;34.83;13.48;;;6.00;99.90;;;4.25;100.00;102200.09;2567875;30;137603;-41
2021/11/24 04:08:19;;;;;;;37.47;13.43;;;6.00;99.90;;;4.25;100.00;102191.97;2569525;30;138947;-40
2021/11/24 04:11:00;;;;;;;39.10;14.05;;;6.00;99.90;;;4.30;100.00;102188.88;2567783;30;137762;-40
2021/11/24 04:13:42;;;;;;;44.55;15.25;;;6.00;99.90;;;4.31;100.00;102193.28;2568381;30;138332;-40
2021/11/24 04:16:23;;;;;;;49.15;16.13;;;6.00;99.90;;;4.30;100.00;102191.59;2569408;30;137552;-40
2021/11/24 04:19:05;;;;;;;42.53;15.82;;;6.00;99.90;;;4.29;100.00;102188.00;2568494;30;138128;-40
2021/11/24 04:21:46;;;;;;;42.33;17.02;;;6.00;99.90;;;4.30;100.00;102181.59;2569068;30;138406;-40
2021/11/24 04:24:28;;;;;;;40.70;15.27;;;6.00;99.90;;;4.31;100.00;102187.88;2568283;30;138264;-40
2021/11/24 04:27:09;;;;;;;35.72;14.98;;;6.00;99.90;;;4.31;100.00;102177.06;2569262;30;137569;-40
2021/11/24 04:29:51;;;;;;;43.25;16.67;;;6.00;99.90;;;4.30;100.00;102178.91;2567932;30;138170;-40
2021/11/24 04:32:33;;;;;;;42.13;15.68;;;6.00;99.90;;;4.27;100.00;102162.13;2566213;30;137850;-40
2021/11/24 04:35:14;;;;;;;42.78;16.95;;;6.00;99.90;;;4.28;100.00;102167.38;2567945;30;138205;-40
2021/11/24 04:37:56;;;;;;;46.40;17.58;;;6.00;99.90;;;4.25;100.00;102166.81;2568224;30;136804;-40
2021/11/24 04:40:38;;;;;;;47.33;17.27;;;6.00;99.90;;;4.26;100.00;102171.25;2567525;30;138434;-40
2021/11/24 04:43:20;;;;;;;40.72;16.63;;;6.00;99.90;;;4.28;100.00;102169.25;2567911;30;137894;-40
2021/11/24 04:46:02;;;;;;;49.58;17.10;;;6.00;99.90;;;4.29;100.00;102168.25;2564460;30;138981;-40
2021/11/24 04:48:44;;;;;;;48.90;18.92;;;6.00;99.90;;;4.28;100.00;102171.94;2569442;30;137992;-40
2021/11/24 04:51:25;;;;;;;40.47;17.17;;;6.00;99.90;;;4.28;100.00;102163.84;2569370;30;138224;-40
2021/11/24 04:54:07;;;;;;;43.50;16.08;;;6.00;99.90;;;4.25;100.00;102150.63;2567331;30;137618;-40
2021/11/24 04:56:48;;;;;;;37.95;16.35;;;5.90;99.90;;;4.27;100.00;102154.03;2568277;30;138344;-40
2021/11/24 04:59:30;;;;;;;46.10;16.98;;;5.90;99.90;;;4.27;100.00;102154.03;2567895;30;138102;-40
2021/11/24 05:02:11;;;;;;;40.67;15.88;;;6.00;99.90;;;4.28;100.00;102153.03;2564927;30;138318;-40
2021/11/24 05:04:52;;;;;;;48.40;17.63;;;6.00;99.90;;;4.28;100.00;102155.75;2568496;30;136851;-40
2021/11/24 05:07:34;;;;;;;42.58;16.15;;;6.00;99.90;;;4.27;100.00;102162.13;2567846;30;137334;-40
2021/11/24 05:10:16;;;;;;;39.65;16.17;;;6.00;99.90;;;4.26;100.00;102158.56;2566386;30;137717;-40
2021/11/24 05:12:58;;;;;;;46.83;16.38;;;6.00;99.90;;;4.29;100.00;102157.44;2568182;30;137080;-40
2021/11/24 05:15:42;;;;;;;40.90;16.13;;;6.00;99.90;;;4.29;100.00;102163.69;2568559;30;137556;-40
2021/11/24 05:18:30;;;;;;;39.53;14.63;;;6.00;99.90;;;4.30;100.00;102159.16;2567789;30;137560;-40
2021/11/24 05:21:15;;;;;;;37.13;15.13;;;6.00;99.90;;;4.31;100.00;102160.88;2568134;30;138398;-40
2021/11/24 05:23:58;;;;;;;36.45;15.00;;;6.00;99.90;;;4.31;100.00;102159.00;2568380;30;136812;-40
2021/11/24 05:26:40;;;;;;;39.80;15.93;;;6.00;99.90;;;4.30;100.00;102162.69;2568728;30;137462;-40
2021/11/24 05:29:22;;;;;;;36.97;14.45;;;6.00;99.90;;;4.26;100.00;102155.03;2568152;30;138482;-40
2021/11/24 05:32:04;;;;;;;41.08;16.55;;;6.00;99.90;;;4.28;100.00;102155.75;2568890;30;138376;-40
2021/11/24 05:34:46;;;;;;;46.17;16.38;;;6.00;99.90;;;4.27;100.00;102154.03;2568114;30;139114;-40
2021/11/24 05:37:31;;;;;;;43.97;16.60;;;6.00;99.90;;;4.19;100.00;102135.81;2567991;30;137615;-40
2021/11/24 05:40:13;;;;;;;39.75;14.88;;;6.00;99.90;;;4.26;100.00;102136.13;2567946;30;138283;-40
2021/11/24 05:42:54;;;;;;;36.67;15.95;;;6.00;99.90;;;4.27;100.00;102138.66;2568906;30;137624;-40
2021/11/24 05:45:42;;;;;;;43.38;15.80;;;6.00;99.90;;;4.25;100.00;102140.66;2567882;30;137366;-40
2021/11/24 05:48:25;;;;;;;39.23;15.87;;;6.00;99.90;;;4.28;100.00;102140.38;2568553;30;137497;-40
2021/11/24 05:51:06;;;;;;;41.35;15.48;;;6.00;99.90;;;4.30;100.00;102137.53;2568539;30;138264;-40
2021/11/24 05:53:48;;;;;;;39.58;16.02;;;6.00;99.90;;;4.31;100.00;102131.13;2568877;30;137480;-40
2021/11/24 05:56:29;;;;;;;39.75;15.82;;;6.00;99.90;;;4.31;100.00;102141.94;2567793;30;138024;-40
2021/11/24 05:59:14;;;;;;;41.38;16.80;;;6.00;99.90;;;4.31;100.00;102142.78;2567513;30;136805;-40
2021/11/24 06:01:55;;;;;;;47.50;16.65;;;6.00;99.90;;;4.31;100.00;102137.38;2567475;30;138173;-40
2021/11/24 06:04:37;;;;;;;43.00;16.25;;;6.00;99.90;;;4.31;100.00;102137.38;2567909;30;137519;-40
2021/11/24 06:07:18;;;;;;;36.80;15.32;;;6.00;99.90;;;4.32;100.00;102136.38;2567562;30;138261;-40
2021/11/24 06:10:00;;;;;;;44.65;15.38;;;6.00;99.90;;;4.35;100.00;102135.28;2567831;30;137394;-40
2021/11/24 06:12:41;;;;;;;36.95;15.50;;;6.00;99.90;;;4.35;100.00;102129.88;2566681;30;138166;-40
2021/11/24 06:15:24;;;;;;;39.35;15.43;;;6.00;99.90;;;4.34;100.00;102128.16;2567382;30;137266;-40
2021/11/24 06:18:06;;;;;;;39.08;15.50;;;6.00;99.90;;;4.31;100.00;102123.88;2566991;30;137432;-40
2021/11/24 06:20:48;;;;;;;39.13;14.95;;;6.00;99.90;;;4.33;100.00;102123.75;2568200;30;138293;-40
2021/11/24 06:23:29;;;;;;;34.97;14.35;;;6.00;99.90;;;4.33;100.00;102121.03;2567496;30;138387;-40
2021/11/24 06:26:11;;;;;;;36.03;14.25;;;6.00;99.90;;;4.34;100.00;102125.47;2566329;30;137540;-40
2021/11/24 06:28:52;;;;;;;34.90;14.05;;;6.00;99.90;;;4.35;100.00;102123.59;2567073;30;137249;-40
2021/11/24 06:31:35;;;;;;;32.78;14.02;;;6.00;99.90;;;4.29;100.00;102112.34;2568283;30;137752;-40
2021/11/24 06:34:16;;;;;;;40.13;14.57;;;6.00;99.90;;;4.33;100.00;102121.03;2568772;30;138329;-40
2021/11/24 06:36:58;;;;;;;40.92;15.35;;;6.00;99.90;;;4.32;100.00;102116.63;2567516;30;136923;-40
2021/11/24 06:39:39;;;;;;;41.15;17.42;;;6.00;99.90;;;4.29;100.00;102114.22;2565773;30;139660;-40
2021/11/24 06:42:21;;;;;;;41.72;16.25;;;6.00;99.90;;;4.30;100.00;102116.75;2569477;30;137438;-40
2021/11/24 06:45:04;;;;;;;38.70;15.80;;;6.00;99.90;;;4.31;100.00;102114.94;2567173;30;137208;-40
2021/11/24 06:47:46;;;;;;;38.40;15.88;;;6.00;99.90;;;4.30;100.00;102111.34;2568771;30;136626;-40
2021/11/24 06:50:27;;;;;;;40.13;16.83;;;6.00;99.90;;;4.31;100.00;102109.53;2567623;30;137307;-40
2021/11/24 06:53:09;;;;;;;43.03;15.93;;;6.00;99.90;;;4.29;100.00;102103.41;2568075;30;137634;-40
2021/11/24 06:55:51;;;;;;;43.15;16.30;;;6.00;99.90;;;4.29;100.00;102106.94;2567341;30;138315;-40
2021/11/24 06:58:32;;;;;;;39.58;15.65;;;6.00;99.90;;;4.32;100.00;102103.97;2568247;30;136709;-40
2021/11/24 07:01:14;;;;;;;35.67;14.07;;;6.00;99.90;;;4.32;100.00;102103.97;2568772;30;138143;-40
2021/11/24 07:03:55;;;;;;;27.35;12.98;;;6.00;99.90;;;4.33;100.00;102094.03;2567571;30;136935;-40
2021/11/24 07:06:37;;;;;;;39.97;15.23;;;6.00;99.90;;;4.33;100.00;102099.44;2566023;30;138189;-40
2021/11/24 07:09:18;;;;;;;36.63;14.15;;;6.00;99.90;;;4.32;100.00;102101.25;2568505;30;136887;-40
2021/11/24 07:12:00;;;;;;;34.38;13.48;;;6.00;99.90;;;4.30;100.00;102100.56;2568476;30;138158;-40
2021/11/24 07:14:41;;;;;;;33.45;14.98;;;6.00;99.90;;;4.28;100.00;102097.13;2568261;30;137703;-40
2021/11/24 07:17:25;;;;;;;38.35;15.30;;;6.00;99.90;;;4.36;100.00;102111.78;2568432;30;138276;-40
2021/11/24 07:20:07;;;;;;;40.90;15.93;;;6.00;99.90;;;4.38;100.00;102112.53;2569747;30;137456;-40
2021/11/24 07:22:48;;;;;;;35.78;15.07;;;6.10;99.90;;;4.37;100.00;102106.25;2568300;30;138472;-40
2021/11/24 07:25:31;;;;;;;38.08;14.95;;;6.10;99.90;;;4.39;100.00;102109.66;2569248;30;137630;-40
2021/11/24 07:28:14;;;;;;;41.22;16.13;;;6.10;99.90;;;4.39;100.00;102111.53;2569041;30;139186;-40
2021/11/24 07:30:56;;;;;;;42.15;15.55;;;6.10;99.90;;;4.42;100.00;102101.28;2568496;30;136690;-40
2021/11/24 07:33:38;;;;;;;37.22;15.15;;;6.10;99.90;;;4.44;100.00;102104.69;2568353;30;139043;-40
2021/11/24 07:36:19;;;;;;;38.03;15.15;;;6.10;99.90;;;4.45;100.00;102105.56;2567204;30;137613;-40
2021/11/24 07:39:01;;;;;;;36.38;14.93;;;6.10;99.90;;;4.47;100.00;102107.13;2568836;30;137038;-40
2021/11/24 07:41:42;;;;;;;40.60;15.80;;;6.10;99.90;;;4.49;100.00;102103.41;2568746;30;136846;-40
2021/11/24 07:44:24;;;;;;;41.80;15.60;;;6.20;99.90;;;4.52;100.00;102106.69;2566914;30;138434;-40
2021/11/24 07:47:06;;;;;;;39.50;15.68;;;6.20;99.90;;;4.56;100.00;102107.28;2569017;30;138340;-40
2021/11/24 07:49:47;;;;;;;44.08;16.70;;;6.20;99.90;;;4.55;100.00;102097.47;2569329;30;139574;-40
2021/11/24 07:52:29;;;;;;;35.72;15.90;;;6.20;99.90;;;4.56;100.00;102099.19;2568862;30;136885;-40
2021/11/24 07:55:10;;;;;;;43.30;16.85;;;6.20;99.90;;;4.59;100.00;102093.47;2568172;30;137321;-40
2021/11/24 07:57:52;;;;;;;45.15;16.77;;;6.20;99.90;;;4.59;100.00;102088.91;2568292;30;136878;-40
2021/11/24 08:00:33;;;;;;;44.38;17.02;;;6.20;99.90;;;4.60;100.00;102087.91;2566811;30;137829;-40
2021/11/24 08:03:15;;;;;;;37.40;15.68;;;6.30;99.90;;;4.65;100.00;102084.78;2568317;30;136880;-40
2021/11/24 08:05:56;;;;;;;52.75;18.60;;;6.30;99.90;;;4.70;100.00;102085.22;2567880;30;137348;-40
2021/11/24 08:08:39;;;;;;;48.40;19.13;;;6.30;99.90;;;4.73;100.00;102082.22;2568789;30;137374;-40
2021/11/24 08:11:20;;;;;;;53.05;18.10;;;6.40;99.90;;;4.72;100.00;102079.69;2567092;30;137342;-40
2021/11/24 08:14:02;;;;;;;47.92;17.50;;;6.40;99.90;;;4.79;100.00;102077.25;2568473;30;137519;-40
2021/11/24 08:16:44;;;;;;;42.28;16.13;;;6.40;99.90;;;4.82;100.00;102071.56;2567166;30;137617;-40
2021/11/24 08:19:25;;;;;;;45.45;18.33;;;6.40;99.90;;;4.85;100.00;102073.97;2568046;30;137471;-40
2021/11/24 08:22:07;;;;;;;47.58;18.67;;;6.50;99.90;;;4.90;100.00;102072.53;2567709;30;138977;-40
2021/11/24 08:24:49;;;;;;;51.22;19.65;;;6.50;99.90;;;4.97;100.00;102063.84;2567467;30;136927;-40
2021/11/24 08:27:34;;;;;;;51.92;19.88;;;6.60;99.90;;;5.01;100.00;102060.69;2568137;30;138072;-40
2021/11/24 08:30:16;;;;;;;49.30;18.88;;;6.60;99.90;;;5.03;100.00;102063.28;2567561;30;136779;-40
2021/11/24 08:32:58;;;;;;;59.63;19.13;;;6.70;99.90;;;5.12;100.00;102061.53;2567874;30;139107;-40
2021/11/24 08:35:39;;;;;;;56.35;20.75;;;6.70;99.90;;;5.12;100.00;102045.31;2567232;30;137580;-40
2021/11/24 08:38:21;;;;;;;59.03;20.08;;;6.70;99.90;;;5.15;100.00;102055.84;2568666;30;136957;-40
2021/11/24 08:41:02;;;;;;;57.33;19.42;;;6.70;99.90;;;5.15;100.00;102051.25;2568177;30;137085;-40
2021/11/24 08:43:44;;;;;;;54.75;19.35;;;6.80;99.90;;;5.18;100.00;102048.28;2568042;30;138975;-40
2021/11/24 08:46:25;;;;;;;54.38;19.30;;;6.80;99.90;;;5.20;100.00;102044.59;2567593;30;138265;-40
2021/11/24 08:49:07;;;;;;;52.00;17.52;;;6.80;99.90;;;5.22;100.00;102046.13;2569203;30;138401;-40
2021/11/24 08:51:48;;;;;;;51.30;18.25;;;6.80;99.90;;;5.24;100.00;102044.13;2569073;30;137648;-40
2021/11/24 08:54:32;;;;;;;58.50;19.95;;;6.90;99.90;;;5.25;100.00;102051.25;2568482;30;136874;-40
2021/11/24 08:57:14;;;;;;;53.47;18.35;;;6.90;99.90;;;5.28;100.00;102037.41;2576214;30;138265;-39
2021/11/24 08:59:56;;;;;;;53.70;19.05;;;6.90;99.90;;;5.40;100.00;102039.94;2570416;30;137665;-38
2021/11/24 09:02:37;;;;;;;53.78;18.65;;;7.00;99.90;;;5.46;100.00;102034.81;2569687;30;137052;-38
2021/11/24 09:05:20;;;;;;;45.83;17.65;;;7.00;99.90;;;5.51;100.00;102037.03;2569467;30;138917;-38
2021/11/24 09:08:02;;;;;;;51.58;17.27;;;7.10;99.90;;;5.52;100.00;102033.34;2569435;30;137542;-39
2021/11/24 09:10:44;;;;;;;52.40;18.50;;;7.10;99.90;;;5.53;100.00;102029.63;2569419;30;137793;-38
2021/11/24 09:13:26;;;;;;;49.33;17.90;;;7.10;99.90;;;5.63;100.00;102031.44;2570811;30;137438;-39
2021/11/24 09:16:08;;;;;;;44.35;17.10;;;7.20;99.90;;;5.63;100.00;102028.75;2568792;30;137228;-39
2021/11/24 09:18:49;;;;;;;46.83;16.50;;;7.20;99.90;;;5.63;100.00;102012.50;2570568;30;137519;-38
2021/11/24 09:21:31;;;;;;;49.47;18.08;;;7.20;99.90;;;5.65;100.00;102016.75;2568160;30;138349;-38
2021/11/24 09:24:15;;;;;;;46.28;17.02;;;7.20;99.90;;;5.69;100.00;102017.31;2569562;30;137256;-38
2021/11/24 09:27:16;;;;;;;42.28;14.48;;;7.30;99.90;;;5.72;100.00;102014.28;2570161;30;138681;-38
2021/11/24 09:30:00;;;;;;;39.08;14.57;;;7.30;99.90;;;5.73;100.00;102011.44;2570870;30;138182;-38
2021/11/24 09:32:43;;;;;;;39.33;14.43;;;7.30;99.90;;;5.77;100.00;102009.28;2567754;30;138318;-38
2021/11/24 09:35:25;;;;;;;40.58;15.40;;;7.30;99.90;;;5.87;100.00;102006.50;2568717;30;137521;-39
2021/11/24 09:38:07;;;;;;;43.35;15.20;;;7.40;99.90;;;5.92;100.00;102003.34;2568546;30;138247;-38
2021/11/24 09:40:50;;;;;;;40.13;14.57;;;7.50;99.90;;;5.94;100.00;102001.34;2570404;30;136934;-38
2021/11/24 09:43:40;;;;;;;43.17;15.40;;;7.50;99.90;;;5.98;100.00;101995.47;2568355;30;139170;-38
2021/11/24 09:46:25;;;;;;;42.22;14.65;;;7.50;99.90;;;6.02;100.00;101993.31;2569971;30;138244;-38
2021/11/24 09:49:06;;;;;;;37.80;14.23;;;7.50;99.90;;;6.03;100.00;101995.88;2568603;30;136720;-39
2021/11/24 09:51:51;;;;;;;43.40;15.85;;;7.50;99.90;;;6.08;100.00;101992.69;2569421;30;137450;-39
2021/11/24 09:54:33;;;;;;;37.85;13.65;;;7.60;99.90;;;6.08;100.00;101984.56;2570168;30;138263;-39
2021/11/24 09:57:18;;;;;;;37.75;14.52;;;7.60;99.90;;;6.10;100.00;101990.72;2569077;30;137095;-38
2021/11/24 10:00:00;;;;;;;40.75;14.30;;;7.60;99.90;;;6.12;100.00;101986.00;2568095;30;137201;-38
2021/11/24 10:02:42;;;;;;;34.90;14.40;;;7.70;99.90;;;6.15;100.00;101976.69;2570297;30;136893;-38
2021/11/24 10:05:30;;;;;;;43.25;15.57;;;7.70;99.90;;;6.22;100.00;101966.91;2567923;30;137454;-38
2021/11/24 10:08:12;;;;;;;42.10;14.57;;;7.80;99.90;;;6.31;100.00;101973.25;2567491;30;136701;-39
2021/11/24 10:10:53;;;;;;;43.97;14.40;;;7.80;99.90;;;6.33;100.00;101966.69;2566603;30;138369;-38
2021/11/24 10:13:35;;;;;;;40.50;14.90;;;7.80;99.90;;;6.33;100.00;101963.13;2570043;30;137524;-38
2021/11/24 10:16:26;;;;;;;37.85;14.77;;;7.90;99.90;;;6.43;100.00;101966.59;2568960;30;137962;-41
2021/11/24 10:19:12;;;;;;;37.97;14.45;;;7.90;99.90;;;6.48;100.00;101947.13;2569260;30;137607;-38
2021/11/24 10:21:54;;;;;;;40.55;14.95;;;8.00;99.90;;;6.58;100.00;101949.75;2569801;30;138205;-39
2021/11/24 10:24:43;;;;;;;36.78;14.80;;;8.00;99.90;;;6.57;100.00;101948.06;2567992;30;137745;-39
2021/11/24 10:27:42;;;;;;;43.95;16.33;;;8.10;99.90;;;6.66;100.00;101936.28;2568810;30;139164;-38
2021/11/24 10:30:31;;;;;;;45.50;15.50;;;8.10;99.90;;;6.75;100.00;101943.44;2568710;30;137670;-39
2021/11/24 10:33:19;;;;;;;41.78;15.95;;;8.20;99.90;;;6.79;100.00;101935.84;2570624;30;138222;-38
2021/11/24 10:36:12;;;;;;;34.85;13.25;;;8.20;99.90;;;6.82;100.00;101935.53;2570539;30;137056;-38
2021/11/24 10:38:55;;;;;;;35.10;13.95;;;8.30;99.90;;;6.81;100.00;101930.25;2566317;30;138731;-39
2021/11/24 10:41:38;;;;;;;33.72;13.15;;;8.30;99.90;;;6.89;100.00;101923.00;2569552;30;137399;-38
2021/11/24 10:44:29;;;;;;;33.92;13.45;;;8.40;99.90;;;6.90;100.00;101918.44;2569229;30;139545;-38
2021/11/24 10:47:13;;;;;;;34.25;14.00;;;8.40;99.90;;;6.97;100.00;101918.63;2569145;30;138430;-38
2021/11/24 10:50:01;;;;;;;34.83;15.02;;;8.40;99.90;;;7.01;100.00;101909.16;2569242;30;138331;-38
2021/11/24 10:52:46;;;;;;;36.60;15.27;;;8.50;99.90;;;7.07;100.00;101907.66;2566449;30;138248;-38
2021/11/24 10:55:31;;;;;;;31.88;13.77;;;8.50;99.90;;;7.11;100.00;101898.16;2565921;30;138298;-39
2021/11/24 10:58:19;;;;;;;32.17;13.65;;;8.50;99.90;;;7.16;99.60;101884.94;2571123;30;137112;-39
2021/11/24 11:01:00;;;;;;;35.92;15.35;;;8.60;99.90;;;7.19;98.07;101885.50;2568500;30;138424;-38
2021/11/24 11:03:43;;;;;;;34.13;14.90;;;8.70;99.90;;;7.28;100.00;101878.22;2569245;30;137322;-38